sensor_id;sensor_type;location;lat;lon;timestamp;P1;durP1;ratioP1;P2;durP2;ratioP2
2041;SDS011;1026;51.460;7.252;2024-02-21T00:00:55;10.30;;;7.50;;
2041;SDS011;1026;51.460;7.252;2024-02-21T00:03:23;13.07;;;7.63;;
2041;SDS011;1026;51.460;7.252;2024-02-21T00:05:49;8.03;;;6.70;;
2041;SDS011;1026;51.460;7.252;2024-02-21T00:08:17;15.20;;;7.63;;
2041;SDS011;1026;51.460;7.252;2024-02-21T00:10:44;14.27;;;6.90;;
2041;SDS011;1026;51.460;7.252;2024-02-21T00:13:11;20.83;;;7.80;;
2041;SDS011;1026;51.460;7.252;2024-02-21T00:15:38;7.83;;;5.07;;
2041;SDS011;1026;51.460;7.252;2024-02-21T00:18:05;15.40;;;8.77;;
2041;SDS011;1026;51.460;7.252;2024-02-21T00:20:32;16.57;;;8.87;;
2041;SDS011;1026;51.460;7.252;2024-02-21T00:22:59;9.27;;;6.47;;
2041;SDS011;1026;51.460;7.252;2024-02-21T00:25:26;13.30;;;7.80;;
2041;SDS011;1026;51.460;7.252;2024-02-21T00:27:53;19.63;;;7.10;;
2041;SDS011;1026;51.460;7.252;2024-02-21T00:30:20;10.50;;;6.73;;
2041;SDS011;1026;51.460;7.252;2024-02-21T00:32:47;18.77;;;9.57;;
2041;SDS011;1026;51.460;7.252;2024-02-21T00:35:14;15.90;;;8.70;;
2041;SDS011;1026;51.460;7.252;2024-02-21T00:37:41;14.67;;;6.50;;
2041;SDS011;1026;51.460;7.252;2024-02-21T00:40:08;10.10;;;7.17;;
2041;SDS011;1026;51.460;7.252;2024-02-21T00:42:36;15.07;;;9.20;;
2041;SDS011;1026;51.460;7.252;2024-02-21T00:45:03;7.43;;;6.03;;
2041;SDS011;1026;51.460;7.252;2024-02-21T00:47:30;13.77;;;7.70;;
2041;SDS011;1026;51.460;7.252;2024-02-21T00:49:57;10.90;;;7.53;;
2041;SDS011;1026;51.460;7.252;2024-02-21T00:52:24;12.60;;;7.20;;
2041;SDS011;1026;51.460;7.252;2024-02-21T00:54:51;15.03;;;8.93;;
2041;SDS011;1026;51.460;7.252;2024-02-21T00:57:20;14.93;;;8.23;;
2041;SDS011;1026;51.460;7.252;2024-02-21T00:59:47;12.20;;;8.53;;
2041;SDS011;1026;51.460;7.252;2024-02-21T01:02:14;14.83;;;7.97;;
2041;SDS011;1026;51.460;7.252;2024-02-21T01:04:41;14.10;;;8.97;;
2041;SDS011;1026;51.460;7.252;2024-02-21T01:07:08;14.87;;;8.37;;
2041;SDS011;1026;51.460;7.252;2024-02-21T01:09:35;16.03;;;9.90;;
2041;SDS011;1026;51.460;7.252;2024-02-21T01:12:02;15.73;;;7.77;;
2041;SDS011;1026;51.460;7.252;2024-02-21T01:14:29;16.57;;;7.47;;
2041;SDS011;1026;51.460;7.252;2024-02-21T01:16:56;14.10;;;7.87;;
2041;SDS011;1026;51.460;7.252;2024-02-21T01:19:24;11.73;;;7.33;;
2041;SDS011;1026;51.460;7.252;2024-02-21T01:21:52;14.30;;;8.83;;
2041;SDS011;1026;51.460;7.252;2024-02-21T01:24:19;13.60;;;7.60;;
2041;SDS011;1026;51.460;7.252;2024-02-21T01:26:45;16.93;;;7.80;;
2041;SDS011;1026;51.460;7.252;2024-02-21T01:29:13;10.77;;;7.50;;
2041;SDS011;1026;51.460;7.252;2024-02-21T01:31:40;10.20;;;7.43;;
2041;SDS011;1026;51.460;7.252;2024-02-21T01:34:06;13.53;;;8.80;;
2041;SDS011;1026;51.460;7.252;2024-02-21T01:36:33;16.30;;;8.70;;
2041;SDS011;1026;51.460;7.252;2024-02-21T01:39:00;15.17;;;7.47;;
2041;SDS011;1026;51.460;7.252;2024-02-21T01:41:29;19.87;;;9.27;;
2041;SDS011;1026;51.460;7.252;2024-02-21T01:43:57;13.23;;;6.70;;
2041;SDS011;1026;51.460;7.252;2024-02-21T01:46:24;14.60;;;9.00;;
2041;SDS011;1026;51.460;7.252;2024-02-21T01:48:56;14.40;;;7.70;;
2041;SDS011;1026;51.460;7.252;2024-02-21T01:51:24;10.00;;;6.20;;
2041;SDS011;1026;51.460;7.252;2024-02-21T01:53:51;12.67;;;8.13;;
2041;SDS011;1026;51.460;7.252;2024-02-21T01:56:21;10.83;;;9.23;;
2041;SDS011;1026;51.460;7.252;2024-02-21T01:58:48;14.70;;;7.90;;
2041;SDS011;1026;51.460;7.252;2024-02-21T02:01:16;12.20;;;7.60;;
2041;SDS011;1026;51.460;7.252;2024-02-21T02:03:48;13.43;;;7.80;;
2041;SDS011;1026;51.460;7.252;2024-02-21T02:06:15;10.73;;;6.90;;
2041;SDS011;1026;51.460;7.252;2024-02-21T02:08:42;15.60;;;10.50;;
2041;SDS011;1026;51.460;7.252;2024-02-21T02:11:10;13.40;;;7.70;;
2041;SDS011;1026;51.460;7.252;2024-02-21T02:13:37;11.97;;;9.23;;
2041;SDS011;1026;51.460;7.252;2024-02-21T02:16:04;7.97;;;6.23;;
2041;SDS011;1026;51.460;7.252;2024-02-21T02:18:31;20.10;;;8.10;;
2041;SDS011;1026;51.460;7.252;2024-02-21T02:20:58;14.03;;;7.80;;
2041;SDS011;1026;51.460;7.252;2024-02-21T02:23:31;19.00;;;9.60;;
2041;SDS011;1026;51.460;7.252;2024-02-21T02:26:11;10.80;;;6.93;;
2041;SDS011;1026;51.460;7.252;2024-02-21T02:28:38;14.30;;;7.77;;
2041;SDS011;1026;51.460;7.252;2024-02-21T02:31:05;15.67;;;9.10;;
2041;SDS011;1026;51.460;7.252;2024-02-21T02:33:32;16.00;;;8.40;;
2041;SDS011;1026;51.460;7.252;2024-02-21T02:35:59;14.40;;;9.40;;
2041;SDS011;1026;51.460;7.252;2024-02-21T02:38:26;14.63;;;7.50;;
2041;SDS011;1026;51.460;7.252;2024-02-21T02:40:53;10.27;;;6.70;;
2041;SDS011;1026;51.460;7.252;2024-02-21T02:43:20;7.00;;;6.30;;
2041;SDS011;1026;51.460;7.252;2024-02-21T02:45:47;12.90;;;8.67;;
2041;SDS011;1026;51.460;7.252;2024-02-21T02:48:13;18.50;;;8.63;;
2041;SDS011;1026;51.460;7.252;2024-02-21T02:50:41;14.27;;;8.10;;
2041;SDS011;1026;51.460;7.252;2024-02-21T02:53:07;12.13;;;7.20;;
2041;SDS011;1026;51.460;7.252;2024-02-21T02:55:34;15.87;;;7.63;;
2041;SDS011;1026;51.460;7.252;2024-02-21T02:58:02;14.47;;;7.80;;
2041;SDS011;1026;51.460;7.252;2024-02-21T03:00:29;13.23;;;7.93;;
2041;SDS011;1026;51.460;7.252;2024-02-21T03:02:56;13.57;;;6.83;;
2041;SDS011;1026;51.460;7.252;2024-02-21T03:05:23;9.50;;;6.17;;
2041;SDS011;1026;51.460;7.252;2024-02-21T03:07:50;13.83;;;7.57;;
2041;SDS011;1026;51.460;7.252;2024-02-21T03:10:17;15.20;;;8.83;;
2041;SDS011;1026;51.460;7.252;2024-02-21T03:12:45;13.43;;;8.37;;
2041;SDS011;1026;51.460;7.252;2024-02-21T03:15:13;10.20;;;7.50;;
2041;SDS011;1026;51.460;7.252;2024-02-21T03:17:41;10.40;;;8.13;;
2041;SDS011;1026;51.460;7.252;2024-02-21T03:20:08;7.77;;;5.30;;
2041;SDS011;1026;51.460;7.252;2024-02-21T03:22:38;17.33;;;7.60;;
2041;SDS011;1026;51.460;7.252;2024-02-21T03:25:07;9.63;;;6.97;;
2041;SDS011;1026;51.460;7.252;2024-02-21T03:27:35;11.60;;;7.33;;
2041;SDS011;1026;51.460;7.252;2024-02-21T03:30:02;11.60;;;7.53;;
2041;SDS011;1026;51.460;7.252;2024-02-21T03:32:30;10.53;;;6.73;;
2041;SDS011;1026;51.460;7.252;2024-02-21T03:34:57;10.37;;;7.97;;
2041;SDS011;1026;51.460;7.252;2024-02-21T03:37:24;10.33;;;7.67;;
2041;SDS011;1026;51.460;7.252;2024-02-21T03:39:51;11.57;;;5.93;;
2041;SDS011;1026;51.460;7.252;2024-02-21T03:42:18;12.00;;;7.23;;
2041;SDS011;1026;51.460;7.252;2024-02-21T03:44:45;10.17;;;7.40;;
2041;SDS011;1026;51.460;7.252;2024-02-21T03:47:12;15.40;;;10.30;;
2041;SDS011;1026;51.460;7.252;2024-02-21T03:49:39;13.80;;;7.23;;
2041;SDS011;1026;51.460;7.252;2024-02-21T03:52:06;12.57;;;7.53;;
2041;SDS011;1026;51.460;7.252;2024-02-21T03:54:34;15.17;;;7.47;;
2041;SDS011;1026;51.460;7.252;2024-02-21T03:57:01;14.87;;;7.87;;
2041;SDS011;1026;51.460;7.252;2024-02-21T03:59:29;15.17;;;8.37;;
2041;SDS011;1026;51.460;7.252;2024-02-21T04:01:55;14.90;;;7.17;;
2041;SDS011;1026;51.460;7.252;2024-02-21T04:04:22;14.63;;;7.10;;
2041;SDS011;1026;51.460;7.252;2024-02-21T04:06:49;14.60;;;7.83;;
2041;SDS011;1026;51.460;7.252;2024-02-21T04:09:17;14.73;;;8.13;;
2041;SDS011;1026;51.460;7.252;2024-02-21T04:11:44;11.87;;;7.63;;
2041;SDS011;1026;51.460;7.252;2024-02-21T04:14:11;11.40;;;7.50;;
2041;SDS011;1026;51.460;7.252;2024-02-21T04:16:38;9.43;;;6.50;;
2041;SDS011;1026;51.460;7.252;2024-02-21T04:22:05;14.10;;;7.67;;
2041;SDS011;1026;51.460;7.252;2024-02-21T04:24:32;14.87;;;7.23;;
2041;SDS011;1026;51.460;7.252;2024-02-21T04:26:59;13.23;;;7.67;;
2041;SDS011;1026;51.460;7.252;2024-02-21T04:29:26;14.17;;;7.73;;
2041;SDS011;1026;51.460;7.252;2024-02-21T04:31:54;14.57;;;7.70;;
2041;SDS011;1026;51.460;7.252;2024-02-21T04:34:21;18.57;;;7.47;;
2041;SDS011;1026;51.460;7.252;2024-02-21T04:36:48;9.53;;;5.60;;
2041;SDS011;1026;51.460;7.252;2024-02-21T04:39:14;12.17;;;7.50;;
2041;SDS011;1026;51.460;7.252;2024-02-21T04:41:41;11.50;;;7.50;;
2041;SDS011;1026;51.460;7.252;2024-02-21T04:44:08;10.40;;;6.60;;
2041;SDS011;1026;51.460;7.252;2024-02-21T04:46:35;12.23;;;7.87;;
2041;SDS011;1026;51.460;7.252;2024-02-21T04:49:02;11.20;;;6.70;;
2041;SDS011;1026;51.460;7.252;2024-02-21T04:51:29;10.10;;;6.43;;
2041;SDS011;1026;51.460;7.252;2024-02-21T04:53:56;8.23;;;5.77;;
2041;SDS011;1026;51.460;7.252;2024-02-21T04:56:22;9.10;;;5.43;;
2041;SDS011;1026;51.460;7.252;2024-02-21T04:58:49;11.30;;;5.80;;
2041;SDS011;1026;51.460;7.252;2024-02-21T05:01:16;10.97;;;6.17;;
2041;SDS011;1026;51.460;7.252;2024-02-21T05:03:43;8.13;;;5.17;;
2041;SDS011;1026;51.460;7.252;2024-02-21T05:06:10;12.03;;;7.57;;
2041;SDS011;1026;51.460;7.252;2024-02-21T05:08:37;11.07;;;6.87;;
2041;SDS011;1026;51.460;7.252;2024-02-21T05:11:04;8.87;;;5.97;;
2041;SDS011;1026;51.460;7.252;2024-02-21T05:13:31;10.60;;;5.50;;
2041;SDS011;1026;51.460;7.252;2024-02-21T05:15:58;11.00;;;5.93;;
2041;SDS011;1026;51.460;7.252;2024-02-21T05:18:27;9.47;;;6.07;;
2041;SDS011;1026;51.460;7.252;2024-02-21T05:20:55;13.83;;;6.30;;
2041;SDS011;1026;51.460;7.252;2024-02-21T05:23:21;9.17;;;6.23;;
2041;SDS011;1026;51.460;7.252;2024-02-21T05:25:48;10.00;;;7.10;;
2041;SDS011;1026;51.460;7.252;2024-02-21T05:28:15;9.87;;;5.60;;
2041;SDS011;1026;51.460;7.252;2024-02-21T05:30:42;7.33;;;5.77;;
2041;SDS011;1026;51.460;7.252;2024-02-21T05:33:09;9.53;;;5.30;;
2041;SDS011;1026;51.460;7.252;2024-02-21T05:35:36;12.20;;;5.67;;
2041;SDS011;1026;51.460;7.252;2024-02-21T05:38:03;11.03;;;5.63;;
2041;SDS011;1026;51.460;7.252;2024-02-21T05:40:34;11.00;;;6.80;;
2041;SDS011;1026;51.460;7.252;2024-02-21T05:43:01;7.83;;;6.37;;
2041;SDS011;1026;51.460;7.252;2024-02-21T05:45:28;12.10;;;5.30;;
2041;SDS011;1026;51.460;7.252;2024-02-21T05:47:55;9.10;;;5.00;;
2041;SDS011;1026;51.460;7.252;2024-02-21T05:50:33;10.63;;;5.87;;
2041;SDS011;1026;51.460;7.252;2024-02-21T05:52:59;12.80;;;6.03;;
2041;SDS011;1026;51.460;7.252;2024-02-21T05:55:26;11.03;;;5.90;;
2041;SDS011;1026;51.460;7.252;2024-02-21T05:57:54;7.70;;;6.07;;
2041;SDS011;1026;51.460;7.252;2024-02-21T06:00:22;11.63;;;5.40;;
2041;SDS011;1026;51.460;7.252;2024-02-21T06:02:48;6.77;;;4.93;;
2041;SDS011;1026;51.460;7.252;2024-02-21T06:05:16;18.70;;;5.80;;
2041;SDS011;1026;51.460;7.252;2024-02-21T06:07:43;6.90;;;5.03;;
2041;SDS011;1026;51.460;7.252;2024-02-21T06:10:10;11.67;;;5.57;;
2041;SDS011;1026;51.460;7.252;2024-02-21T06:12:37;8.10;;;5.50;;
2041;SDS011;1026;51.460;7.252;2024-02-21T06:15:04;9.23;;;5.27;;
2041;SDS011;1026;51.460;7.252;2024-02-21T06:17:31;13.33;;;5.27;;
2041;SDS011;1026;51.460;7.252;2024-02-21T06:19:58;4.90;;;4.10;;
2041;SDS011;1026;51.460;7.252;2024-02-21T06:22:25;9.23;;;5.20;;
2041;SDS011;1026;51.460;7.252;2024-02-21T06:24:52;6.50;;;4.23;;
2041;SDS011;1026;51.460;7.252;2024-02-21T06:27:20;8.60;;;5.83;;
2041;SDS011;1026;51.460;7.252;2024-02-21T06:29:47;6.80;;;6.00;;
2041;SDS011;1026;51.460;7.252;2024-02-21T06:32:14;9.13;;;4.90;;
2041;SDS011;1026;51.460;7.252;2024-02-21T06:34:41;12.33;;;5.10;;
2041;SDS011;1026;51.460;7.252;2024-02-21T06:37:08;9.80;;;5.00;;
2041;SDS011;1026;51.460;7.252;2024-02-21T06:39:35;12.53;;;5.40;;
2041;SDS011;1026;51.460;7.252;2024-02-21T06:42:04;7.90;;;4.93;;
2041;SDS011;1026;51.460;7.252;2024-02-21T06:44:31;8.00;;;6.00;;
2041;SDS011;1026;51.460;7.252;2024-02-21T06:47:01;8.23;;;5.17;;
2041;SDS011;1026;51.460;7.252;2024-02-21T06:49:28;11.33;;;5.50;;
2041;SDS011;1026;51.460;7.252;2024-02-21T06:51:55;7.63;;;4.43;;
2041;SDS011;1026;51.460;7.252;2024-02-21T06:54:22;9.90;;;5.07;;
2041;SDS011;1026;51.460;7.252;2024-02-21T06:56:56;8.80;;;5.17;;
2041;SDS011;1026;51.460;7.252;2024-02-21T06:59:22;11.07;;;5.10;;
2041;SDS011;1026;51.460;7.252;2024-02-21T07:01:51;10.57;;;4.77;;
2041;SDS011;1026;51.460;7.252;2024-02-21T07:04:19;7.37;;;4.97;;
2041;SDS011;1026;51.460;7.252;2024-02-21T07:06:46;4.50;;;4.07;;
2041;SDS011;1026;51.460;7.252;2024-02-21T07:09:13;11.17;;;5.47;;
2041;SDS011;1026;51.460;7.252;2024-02-21T07:11:40;5.90;;;4.73;;
2041;SDS011;1026;51.460;7.252;2024-02-21T07:14:10;9.80;;;4.93;;
2041;SDS011;1026;51.460;7.252;2024-02-21T07:16:37;5.60;;;3.90;;
2041;SDS011;1026;51.460;7.252;2024-02-21T07:19:04;14.93;;;6.23;;
2041;SDS011;1026;51.460;7.252;2024-02-21T07:21:31;9.00;;;4.57;;
2041;SDS011;1026;51.460;7.252;2024-02-21T07:23:58;6.93;;;5.10;;
2041;SDS011;1026;51.460;7.252;2024-02-21T07:26:25;7.57;;;4.70;;
2041;SDS011;1026;51.460;7.252;2024-02-21T07:28:52;6.07;;;5.10;;
2041;SDS011;1026;51.460;7.252;2024-02-21T07:31:19;5.50;;;4.20;;
2041;SDS011;1026;51.460;7.252;2024-02-21T07:33:46;4.83;;;4.10;;
2041;SDS011;1026;51.460;7.252;2024-02-21T07:36:14;7.27;;;4.70;;
2041;SDS011;1026;51.460;7.252;2024-02-21T07:38:42;5.80;;;5.13;;
2041;SDS011;1026;51.460;7.252;2024-02-21T07:41:08;8.50;;;5.00;;
2041;SDS011;1026;51.460;7.252;2024-02-21T07:43:45;7.60;;;4.03;;
2041;SDS011;1026;51.460;7.252;2024-02-21T07:46:11;9.40;;;3.80;;
2041;SDS011;1026;51.460;7.252;2024-02-21T07:48:38;6.70;;;5.17;;
2041;SDS011;1026;51.460;7.252;2024-02-21T07:51:05;6.07;;;4.00;;
2041;SDS011;1026;51.460;7.252;2024-02-21T07:53:40;11.33;;;4.93;;
2041;SDS011;1026;51.460;7.252;2024-02-21T07:56:11;5.17;;;4.00;;
2041;SDS011;1026;51.460;7.252;2024-02-21T07:58:38;6.33;;;4.90;;
2041;SDS011;1026;51.460;7.252;2024-02-21T08:01:05;6.10;;;4.60;;
2041;SDS011;1026;51.460;7.252;2024-02-21T08:03:32;9.60;;;5.50;;
2041;SDS011;1026;51.460;7.252;2024-02-21T08:08:56;6.50;;;4.73;;
2041;SDS011;1026;51.460;7.252;2024-02-21T08:11:23;4.20;;;3.77;;
2041;SDS011;1026;51.460;7.252;2024-02-21T08:13:50;10.50;;;5.80;;
2041;SDS011;1026;51.460;7.252;2024-02-21T08:16:17;10.57;;;4.97;;
2041;SDS011;1026;51.460;7.252;2024-02-21T08:18:44;6.50;;;5.33;;
2041;SDS011;1026;51.460;7.252;2024-02-21T08:21:11;6.00;;;4.20;;
2041;SDS011;1026;51.460;7.252;2024-02-21T08:23:38;6.23;;;4.00;;
2041;SDS011;1026;51.460;7.252;2024-02-21T08:26:05;5.30;;;4.03;;
2041;SDS011;1026;51.460;7.252;2024-02-21T08:28:32;6.30;;;4.40;;
2041;SDS011;1026;51.460;7.252;2024-02-21T08:30:58;9.23;;;4.67;;
2041;SDS011;1026;51.460;7.252;2024-02-21T08:33:26;7.60;;;4.30;;
2041;SDS011;1026;51.460;7.252;2024-02-21T08:35:53;7.13;;;4.27;;
2041;SDS011;1026;51.460;7.252;2024-02-21T08:38:19;7.20;;;3.70;;
2041;SDS011;1026;51.460;7.252;2024-02-21T08:40:46;6.63;;;4.20;;
2041;SDS011;1026;51.460;7.252;2024-02-21T08:43:13;14.87;;;3.67;;
2041;SDS011;1026;51.460;7.252;2024-02-21T08:45:40;6.87;;;3.77;;
2041;SDS011;1026;51.460;7.252;2024-02-21T08:48:07;8.53;;;3.77;;
2041;SDS011;1026;51.460;7.252;2024-02-21T08:50:34;3.90;;;3.43;;
2041;SDS011;1026;51.460;7.252;2024-02-21T08:53:03;5.67;;;3.87;;
2041;SDS011;1026;51.460;7.252;2024-02-21T08:55:29;5.57;;;3.50;;
2041;SDS011;1026;51.460;7.252;2024-02-21T08:57:56;5.90;;;4.47;;
2041;SDS011;1026;51.460;7.252;2024-02-21T09:00:23;6.27;;;4.60;;
2041;SDS011;1026;51.460;7.252;2024-02-21T09:02:54;9.07;;;4.90;;
2041;SDS011;1026;51.460;7.252;2024-02-21T09:05:22;6.73;;;3.97;;
2041;SDS011;1026;51.460;7.252;2024-02-21T09:07:51;4.77;;;4.03;;
2041;SDS011;1026;51.460;7.252;2024-02-21T09:10:18;4.87;;;3.77;;
2041;SDS011;1026;51.460;7.252;2024-02-21T09:12:45;3.97;;;3.33;;
2041;SDS011;1026;51.460;7.252;2024-02-21T09:15:12;7.67;;;4.23;;
2041;SDS011;1026;51.460;7.252;2024-02-21T09:17:39;14.20;;;5.23;;
2041;SDS011;1026;51.460;7.252;2024-02-21T09:20:06;13.20;;;6.20;;
2041;SDS011;1026;51.460;7.252;2024-02-21T09:22:34;11.80;;;6.37;;
2041;SDS011;1026;51.460;7.252;2024-02-21T09:25:02;9.23;;;5.57;;
2041;SDS011;1026;51.460;7.252;2024-02-21T09:27:30;10.60;;;5.63;;
2041;SDS011;1026;51.460;7.252;2024-02-21T09:29:56;8.37;;;5.30;;
2041;SDS011;1026;51.460;7.252;2024-02-21T09:32:24;16.23;;;6.40;;
2041;SDS011;1026;51.460;7.252;2024-02-21T09:34:51;13.57;;;6.70;;
2041;SDS011;1026;51.460;7.252;2024-02-21T09:37:25;9.50;;;6.70;;
2041;SDS011;1026;51.460;7.252;2024-02-21T09:39:52;20.17;;;7.87;;
2041;SDS011;1026;51.460;7.252;2024-02-21T09:42:20;11.10;;;5.93;;
2041;SDS011;1026;51.460;7.252;2024-02-21T09:44:48;8.57;;;6.07;;
2041;SDS011;1026;51.460;7.252;2024-02-21T09:47:24;12.40;;;6.37;;
2041;SDS011;1026;51.460;7.252;2024-02-21T09:50:17;13.97;;;7.43;;
2041;SDS011;1026;51.460;7.252;2024-02-21T09:52:48;13.10;;;6.50;;
2041;SDS011;1026;51.460;7.252;2024-02-21T09:55:15;14.40;;;7.83;;
2041;SDS011;1026;51.460;7.252;2024-02-21T09:57:45;11.57;;;6.20;;
2041;SDS011;1026;51.460;7.252;2024-02-21T10:00:12;15.87;;;7.00;;
2041;SDS011;1026;51.460;7.252;2024-02-21T10:02:48;8.40;;;5.87;;
2041;SDS011;1026;51.460;7.252;2024-02-21T10:05:16;22.40;;;7.73;;
2041;SDS011;1026;51.460;7.252;2024-02-21T10:07:44;14.40;;;7.10;;
2041;SDS011;1026;51.460;7.252;2024-02-21T10:10:10;9.17;;;6.50;;
2041;SDS011;1026;51.460;7.252;2024-02-21T10:12:47;9.63;;;7.53;;
2041;SDS011;1026;51.460;7.252;2024-02-21T10:15:21;11.90;;;7.60;;
2041;SDS011;1026;51.460;7.252;2024-02-21T10:17:58;10.23;;;7.77;;
2041;SDS011;1026;51.460;7.252;2024-02-21T10:20:26;16.17;;;7.87;;
2041;SDS011;1026;51.460;7.252;2024-02-21T10:23:00;12.90;;;7.10;;
2041;SDS011;1026;51.460;7.252;2024-02-21T10:25:35;16.73;;;6.67;;
2041;SDS011;1026;51.460;7.252;2024-02-21T10:28:08;13.57;;;6.40;;
2041;SDS011;1026;51.460;7.252;2024-02-21T10:30:34;16.57;;;6.83;;
2041;SDS011;1026;51.460;7.252;2024-02-21T10:33:01;7.77;;;6.57;;
2041;SDS011;1026;51.460;7.252;2024-02-21T10:35:30;10.63;;;7.50;;
2041;SDS011;1026;51.460;7.252;2024-02-21T10:37:58;10.83;;;7.30;;
2041;SDS011;1026;51.460;7.252;2024-02-21T10:40:26;8.60;;;6.33;;
2041;SDS011;1026;51.460;7.252;2024-02-21T10:42:57;10.40;;;5.97;;
2041;SDS011;1026;51.460;7.252;2024-02-21T10:45:28;10.33;;;5.97;;
2041;SDS011;1026;51.460;7.252;2024-02-21T10:48:05;9.00;;;5.20;;
2041;SDS011;1026;51.460;7.252;2024-02-21T10:53:49;7.30;;;5.83;;
2041;SDS011;1026;51.460;7.252;2024-02-21T10:56:35;8.33;;;6.30;;
2041;SDS011;1026;51.460;7.252;2024-02-21T10:59:06;6.93;;;5.37;;
2041;SDS011;1026;51.460;7.252;2024-02-21T11:01:34;8.60;;;6.87;;
2041;SDS011;1026;51.460;7.252;2024-02-21T11:04:06;8.70;;;6.27;;
2041;SDS011;1026;51.460;7.252;2024-02-21T11:06:39;12.27;;;7.00;;
2041;SDS011;1026;51.460;7.252;2024-02-21T11:09:08;7.90;;;5.83;;
2041;SDS011;1026;51.460;7.252;2024-02-21T11:11:40;11.30;;;6.27;;
2041;SDS011;1026;51.460;7.252;2024-02-21T11:14:18;6.77;;;5.70;;
2041;SDS011;1026;51.460;7.252;2024-02-21T11:16:47;7.50;;;5.03;;
2041;SDS011;1026;51.460;7.252;2024-02-21T11:19:27;12.20;;;6.07;;
2041;SDS011;1026;51.460;7.252;2024-02-21T11:21:56;7.73;;;6.33;;
2041;SDS011;1026;51.460;7.252;2024-02-21T11:24:31;6.70;;;5.33;;
2041;SDS011;1026;51.460;7.252;2024-02-21T11:29:47;6.50;;;5.60;;
2041;SDS011;1026;51.460;7.252;2024-02-21T11:32:25;8.10;;;6.67;;
2041;SDS011;1026;51.460;7.252;2024-02-21T11:34:59;8.03;;;5.33;;
2041;SDS011;1026;51.460;7.252;2024-02-21T11:37:33;7.23;;;5.63;;
2041;SDS011;1026;51.460;7.252;2024-02-21T11:40:03;6.30;;;4.87;;
2041;SDS011;1026;51.460;7.252;2024-02-21T11:42:33;7.23;;;4.97;;
2041;SDS011;1026;51.460;7.252;2024-02-21T11:45:00;10.53;;;5.60;;
2041;SDS011;1026;51.460;7.252;2024-02-21T11:47:30;7.77;;;5.33;;
2041;SDS011;1026;51.460;7.252;2024-02-21T11:49:57;8.83;;;5.80;;
2041;SDS011;1026;51.460;7.252;2024-02-21T11:52:24;8.73;;;4.60;;
2041;SDS011;1026;51.460;7.252;2024-02-21T11:54:53;5.00;;;4.50;;
2041;SDS011;1026;51.460;7.252;2024-02-21T11:57:21;11.27;;;5.47;;
2041;SDS011;1026;51.460;7.252;2024-02-21T11:59:48;8.60;;;7.87;;
2041;SDS011;1026;51.460;7.252;2024-02-21T12:02:22;7.87;;;4.53;;
2041;SDS011;1026;51.460;7.252;2024-02-21T12:04:49;5.47;;;4.97;;
2041;SDS011;1026;51.460;7.252;2024-02-21T12:07:18;10.67;;;5.40;;
2041;SDS011;1026;51.460;7.252;2024-02-21T12:09:45;5.83;;;4.43;;
2041;SDS011;1026;51.460;7.252;2024-02-21T12:12:12;8.63;;;4.93;;
2041;SDS011;1026;51.460;7.252;2024-02-21T12:14:39;5.60;;;4.90;;
2041;SDS011;1026;51.460;7.252;2024-02-21T12:17:06;6.00;;;4.23;;
2041;SDS011;1026;51.460;7.252;2024-02-21T12:19:33;8.70;;;4.23;;
2041;SDS011;1026;51.460;7.252;2024-02-21T12:22:01;5.43;;;4.40;;
2041;SDS011;1026;51.460;7.252;2024-02-21T12:24:32;7.40;;;4.00;;
2041;SDS011;1026;51.460;7.252;2024-02-21T12:26:59;5.83;;;3.60;;
2041;SDS011;1026;51.460;7.252;2024-02-21T12:29:26;10.33;;;4.20;;
2041;SDS011;1026;51.460;7.252;2024-02-21T12:31:55;5.87;;;2.80;;
2041;SDS011;1026;51.460;7.252;2024-02-21T12:34:23;5.90;;;3.23;;
2041;SDS011;1026;51.460;7.252;2024-02-21T12:37:04;7.67;;;3.50;;
2041;SDS011;1026;51.460;7.252;2024-02-21T12:39:31;6.50;;;4.43;;
2041;SDS011;1026;51.460;7.252;2024-02-21T12:41:58;5.97;;;3.23;;
2041;SDS011;1026;51.460;7.252;2024-02-21T12:44:26;4.23;;;3.43;;
2041;SDS011;1026;51.460;7.252;2024-02-21T12:46:53;4.23;;;2.83;;
2041;SDS011;1026;51.460;7.252;2024-02-21T12:49:21;5.60;;;3.40;;
2041;SDS011;1026;51.460;7.252;2024-02-21T12:51:49;3.87;;;3.30;;
2041;SDS011;1026;51.460;7.252;2024-02-21T12:54:16;5.20;;;3.40;;
2041;SDS011;1026;51.460;7.252;2024-02-21T12:56:42;4.00;;;3.13;;
2041;SDS011;1026;51.460;7.252;2024-02-21T12:59:09;5.23;;;3.27;;
2041;SDS011;1026;51.460;7.252;2024-02-21T13:01:36;7.97;;;3.40;;
2041;SDS011;1026;51.460;7.252;2024-02-21T13:04:06;10.67;;;3.53;;
2041;SDS011;1026;51.460;7.252;2024-02-21T13:06:34;7.13;;;3.60;;
2041;SDS011;1026;51.460;7.252;2024-02-21T13:09:03;9.80;;;4.73;;
2041;SDS011;1026;51.460;7.252;2024-02-21T13:11:34;6.30;;;2.87;;
2041;SDS011;1026;51.460;7.252;2024-02-21T13:14:01;7.00;;;3.47;;
2041;SDS011;1026;51.460;7.252;2024-02-21T13:16:28;6.77;;;3.73;;
2041;SDS011;1026;51.460;7.252;2024-02-21T13:18:55;6.37;;;4.10;;
2041;SDS011;1026;51.460;7.252;2024-02-21T13:21:22;7.90;;;2.63;;
2041;SDS011;1026;51.460;7.252;2024-02-21T13:23:49;3.20;;;2.87;;
2041;SDS011;1026;51.460;7.252;2024-02-21T13:26:16;5.40;;;2.80;;
2041;SDS011;1026;51.460;7.252;2024-02-21T13:28:43;3.60;;;2.70;;
2041;SDS011;1026;51.460;7.252;2024-02-21T13:31:11;11.00;;;3.60;;
2041;SDS011;1026;51.460;7.252;2024-02-21T13:33:38;5.87;;;2.60;;
2041;SDS011;1026;51.460;7.252;2024-02-21T13:36:06;5.60;;;3.40;;
2041;SDS011;1026;51.460;7.252;2024-02-21T13:38:33;7.43;;;5.33;;
2041;SDS011;1026;51.460;7.252;2024-02-21T13:40:59;14.20;;;3.47;;
2041;SDS011;1026;51.460;7.252;2024-02-21T13:43:27;5.60;;;2.93;;
2041;SDS011;1026;51.460;7.252;2024-02-21T13:46:00;6.20;;;3.50;;
2041;SDS011;1026;51.460;7.252;2024-02-21T13:48:35;4.70;;;2.50;;
2041;SDS011;1026;51.460;7.252;2024-02-21T13:51:02;4.73;;;3.00;;
2041;SDS011;1026;51.460;7.252;2024-02-21T13:53:29;7.83;;;3.63;;
2041;SDS011;1026;51.460;7.252;2024-02-21T13:55:56;8.50;;;2.57;;
2041;SDS011;1026;51.460;7.252;2024-02-21T13:58:23;5.77;;;4.40;;
2041;SDS011;1026;51.460;7.252;2024-02-21T14:00:51;3.70;;;2.97;;
2041;SDS011;1026;51.460;7.252;2024-02-21T14:03:19;6.47;;;3.00;;
2041;SDS011;1026;51.460;7.252;2024-02-21T14:05:46;8.33;;;3.27;;
2041;SDS011;1026;51.460;7.252;2024-02-21T14:08:15;4.03;;;2.90;;
2041;SDS011;1026;51.460;7.252;2024-02-21T14:10:42;8.10;;;2.73;;
2041;SDS011;1026;51.460;7.252;2024-02-21T14:13:09;5.70;;;3.23;;
2041;SDS011;1026;51.460;7.252;2024-02-21T14:15:36;3.77;;;2.40;;
2041;SDS011;1026;51.460;7.252;2024-02-21T14:18:04;10.30;;;3.20;;
2041;SDS011;1026;51.460;7.252;2024-02-21T14:20:35;6.60;;;2.80;;
2041;SDS011;1026;51.460;7.252;2024-02-21T14:23:02;9.70;;;3.33;;
2041;SDS011;1026;51.460;7.252;2024-02-21T14:25:31;5.00;;;2.30;;
2041;SDS011;1026;51.460;7.252;2024-02-21T14:27:59;6.13;;;3.03;;
2041;SDS011;1026;51.460;7.252;2024-02-21T14:30:27;6.50;;;3.43;;
2041;SDS011;1026;51.460;7.252;2024-02-21T14:32:54;5.93;;;2.73;;
2041;SDS011;1026;51.460;7.252;2024-02-21T14:35:21;3.63;;;2.93;;
2041;SDS011;1026;51.460;7.252;2024-02-21T14:37:48;6.90;;;2.90;;
2041;SDS011;1026;51.460;7.252;2024-02-21T14:40:19;5.17;;;2.53;;
2041;SDS011;1026;51.460;7.252;2024-02-21T14:42:47;8.00;;;3.40;;
2041;SDS011;1026;51.460;7.252;2024-02-21T14:45:14;5.00;;;2.80;;
2041;SDS011;1026;51.460;7.252;2024-02-21T14:47:40;6.03;;;2.80;;
2041;SDS011;1026;51.460;7.252;2024-02-21T14:50:08;3.67;;;2.67;;
2041;SDS011;1026;51.460;7.252;2024-02-21T14:52:35;7.73;;;3.30;;
2041;SDS011;1026;51.460;7.252;2024-02-21T14:55:03;7.80;;;3.27;;
2041;SDS011;1026;51.460;7.252;2024-02-21T14:57:31;4.07;;;2.67;;
2041;SDS011;1026;51.460;7.252;2024-02-21T14:59:58;5.20;;;2.77;;
2041;SDS011;1026;51.460;7.252;2024-02-21T15:02:27;5.63;;;3.07;;
2041;SDS011;1026;51.460;7.252;2024-02-21T15:04:55;6.73;;;2.80;;
2041;SDS011;1026;51.460;7.252;2024-02-21T15:07:22;4.17;;;3.20;;
2041;SDS011;1026;51.460;7.252;2024-02-21T15:09:51;6.13;;;3.13;;
2041;SDS011;1026;51.460;7.252;2024-02-21T15:12:19;4.20;;;2.20;;
2041;SDS011;1026;51.460;7.252;2024-02-21T15:14:45;5.37;;;2.73;;
2041;SDS011;1026;51.460;7.252;2024-02-21T15:17:12;4.03;;;2.70;;
2041;SDS011;1026;51.460;7.252;2024-02-21T15:19:40;5.03;;;3.17;;
2041;SDS011;1026;51.460;7.252;2024-02-21T15:22:10;3.80;;;2.77;;
2041;SDS011;1026;51.460;7.252;2024-02-21T15:24:38;5.63;;;3.10;;